地図

経路データ

SID SEASON NUMBER BASIN SUBBASIN NAME ISO_TIME NATURE LAT LON WMO_WIND WMO_PRES WMO_AGENCY TRACK_TYPE DIST2LAND LANDFALL IFLAG USA_AGENCY USA_ATCF_ID USA_LAT USA_LON USA_RECORD USA_STATUS USA_WIND USA_PRES USA_SSHS USA_R34_NE USA_R34_SE USA_R34_SW USA_R34_NW USA_R50_NE USA_R50_SE USA_R50_SW USA_R50_NW USA_R64_NE USA_R64_SE USA_R64_SW USA_R64_NW USA_POCI USA_ROCI USA_RMW USA_EYE TOKYO_LAT TOKYO_LON TOKYO_GRADE TOKYO_WIND TOKYO_PRES TOKYO_R50_DIR TOKYO_R50_LONG TOKYO_R50_SHORT TOKYO_R30_DIR TOKYO_R30_LONG TOKYO_R30_SHORT TOKYO_LAND CMA_LAT CMA_LON CMA_CAT CMA_WIND CMA_PRES HKO_LAT HKO_LON HKO_CAT HKO_WIND HKO_PRES NEWDELHI_LAT NEWDELHI_LON NEWDELHI_GRADE NEWDELHI_WIND NEWDELHI_PRES NEWDELHI_CI NEWDELHI_DP NEWDELHI_POCI REUNION_LAT REUNION_LON REUNION_TYPE REUNION_WIND REUNION_PRES REUNION_TNUM REUNION_CI REUNION_RMW REUNION_R34_NE REUNION_R34_SE REUNION_R34_SW REUNION_R34_NW REUNION_R50_NE REUNION_R50_SE REUNION_R50_SW REUNION_R50_NW REUNION_R64_NE REUNION_R64_SE REUNION_R64_SW REUNION_R64_NW BOM_LAT BOM_LON BOM_TYPE BOM_WIND BOM_PRES BOM_TNUM BOM_CI BOM_RMW BOM_R34_NE BOM_R34_SE BOM_R34_SW BOM_R34_NW BOM_R50_NE BOM_R50_SE BOM_R50_SW BOM_R50_NW BOM_R64_NE BOM_R64_SE BOM_R64_SW BOM_R64_NW BOM_ROCI BOM_POCI BOM_EYE BOM_POS_METHOD BOM_PRES_METHOD NADI_LAT NADI_LON NADI_CAT NADI_WIND NADI_PRES WELLINGTON_LAT WELLINGTON_LON WELLINGTON_WIND WELLINGTON_PRES DS824_LAT DS824_LON DS824_STAGE DS824_WIND DS824_PRES TD9636_LAT TD9636_LON TD9636_STAGE TD9636_WIND TD9636_PRES TD9635_LAT TD9635_LON TD9635_WIND TD9635_PRES TD9635_ROCI NEUMANN_LAT NEUMANN_LON NEUMANN_CLASS NEUMANN_WIND NEUMANN_PRES MLC_LAT MLC_LON MLC_CLASS MLC_WIND MLC_PRES USA_GUST BOM_GUST BOM_GUST_PER REUNION_GUST REUNION_GUST_PER USA_SEAHGT USA_SEARAD_NE USA_SEARAD_SE USA_SEARAD_SW USA_SEARAD_NW STORM_SPEED STORM_DIR
1978281N18304 1978 104 NA NA JULIET 1978-10-07 18:00:00 TS 18.0000 -55.6000 25 1011 hurdat_atl main 1003 982 O_____________ hurdat_atl AL201978 18.0000 -55.6000 TD 25 1011 -1 10 288
1978281N18304 1978 104 NA NA JULIET 1978-10-07 21:00:00 TS 18.1477 -56.0874 main 982 949 P_____________ AL201978 18.1477 -56.0874 TD 27 1010 -1 10 288
1978281N18304 1978 104 NA NA JULIET 1978-10-08 00:00:00 TS 18.3000 -56.6000 30 1010 hurdat_atl main 949 896 O_____________ hurdat_atl AL201978 18.3000 -56.6000 TD 30 1010 -1 11 287
1978281N18304 1978 104 NA NA JULIET 1978-10-08 03:00:00 TS 18.4575 -57.1500 main 896 833 P_____________ AL201978 18.4575 -57.1500 TD 30 1009 -1 11 286
1978281N18304 1978 104 NA NA JULIET 1978-10-08 06:00:00 TS 18.6000 -57.7000 30 1009 hurdat_atl main 833 780 O_____________ hurdat_atl AL201978 18.6000 -57.7000 TD 30 1009 -1 10 284
1978281N18304 1978 104 NA NA JULIET 1978-10-08 09:00:00 TS 18.7072 -58.2002 main 780 728 P_____________ AL201978 18.7072 -58.2002 TD 32 1008 -1 10 282
1978281N18304 1978 104 NA NA JULIET 1978-10-08 12:00:00 TS 18.8000 -58.7000 35 1008 hurdat_atl main 728 676 O_____________ hurdat_atl AL201978 18.8000 -58.7000 TS 35 1008 0 10 281
1978281N18304 1978 104 NA NA JULIET 1978-10-08 15:00:00 TS 18.8924 -59.2426 main 676 614 P_____________ AL201978 18.8924 -59.2426 TS 37 1007 0 11 281
1978281N18304 1978 104 NA NA JULIET 1978-10-08 18:00:00 TS 19.0000 -59.8000 40 1007 hurdat_atl main 614 563 O_____________ hurdat_atl AL201978 19.0000 -59.8000 TS 40 1007 0 11 283
1978281N18304 1978 104 NA NA JULIET 1978-10-08 21:00:00 TS 19.1348 -60.3501 main 553 504 P_____________ AL201978 19.1348 -60.3501 TS 42 1006 0 11 286
1978281N18304 1978 104 NA NA JULIET 1978-10-09 00:00:00 TS 19.3000 -60.9000 45 1006 hurdat_atl main 504 458 O_____________ hurdat_atl AL201978 19.3000 -60.9000 TS 45 1006 0 11 290
1978281N18304 1978 104 NA NA JULIET 1978-10-09 03:00:00 TS 19.5074 -61.4574 main 448 405 P_____________ AL201978 19.5074 -61.4574 TS 45 1006 0 11 291
1978281N18304 1978 104 NA NA JULIET 1978-10-09 06:00:00 TS 19.7000 -62.0000 45 1006 hurdat_atl main 405 361 O_____________ hurdat_atl AL201978 19.7000 -62.0000 TS 45 1006 0 10 287
1978281N18304 1978 104 NA NA JULIET 1978-10-09 09:00:00 TS 19.7997 -62.4929 main 361 320 P_____________ AL201978 19.7997 -62.4929 TS 45 1006 0 10 282
1978281N18304 1978 104 NA NA JULIET 1978-10-09 12:00:00 TS 19.9000 -63.0000 45 1006 hurdat_atl main 320 283 O_____________ hurdat_atl AL201978 19.9000 -63.0000 TS 45 1006 0 11 285
1978281N18304 1978 104 NA NA JULIET 1978-10-09 15:00:00 TS 20.0699 -63.5851 main 283 255 P_____________ AL201978 20.0699 -63.5851 TS 45 1006 0 12 290
1978281N18304 1978 104 NA NA JULIET 1978-10-09 18:00:00 TS 20.3000 -64.2000 45 1006 hurdat_atl main 258 251 O_____________ hurdat_atl AL201978 20.3000 -64.2000 TS 45 1006 0 12 294
1978281N18304 1978 104 NA NA JULIET 1978-10-09 21:00:00 TS 20.5695 -64.7705 main 259 256 P_____________ AL201978 20.5695 -64.7705 TS 45 1006 0 13 298
1978281N18304 1978 104 NA NA JULIET 1978-10-10 00:00:00 TS 20.9000 -65.4000 45 1006 hurdat_atl main 280 279 O_____________ hurdat_atl AL201978 20.9000 -65.4000 TS 45 1006 0 15 298
1978281N18304 1978 104 NA NA JULIET 1978-10-10 03:00:00 TS 21.2623 -66.1556 main 324 324 P_____________ AL201978 21.2623 -66.1556 TS 45 1006 0 17 298
1978281N18304 1978 104 NA NA JULIET 1978-10-10 06:00:00 TS 21.7000 -67.0000 45 1006 hurdat_atl main 359 344 O_____________ hurdat_atl AL201978 21.7000 -67.0000 TS 45 1006 0 19 300
1978281N18304 1978 104 NA NA JULIET 1978-10-10 09:00:00 TS 22.1978 -67.9227 main 355 351 P_____________ AL201978 22.1978 -67.9227 TS 45 1006 0 20 303
1978281N18304 1978 104 NA NA JULIET 1978-10-10 12:00:00 TS 22.8000 -68.8000 45 1006 hurdat_atl main 378 378 O_____________ hurdat_atl AL201978 22.8000 -68.8000 TS 45 1006 0 20 311
1978281N18304 1978 104 NA NA JULIET 1978-10-10 15:00:00 TS 23.4896 -69.5254 main 429 426 P_____________ AL201978 23.4896 -69.5254 TS 45 1006 0 19 322
1978281N18304 1978 104 NA NA JULIET 1978-10-10 18:00:00 TS 24.3000 -70.1000 45 1006 hurdat_atl main 456 456 O_____________ hurdat_atl AL201978 24.3000 -70.1000 TS 45 1006 0 20 331
1978281N18304 1978 104 NA NA JULIET 1978-10-10 21:00:00 TS 25.2048 -70.5898 main 509 509 P_____________ AL201978 25.2048 -70.5898 TS 45 1006 0 20 339
1978281N18304 1978 104 NA NA JULIET 1978-10-11 00:00:00 TS 26.2000 -70.9000 45 1006 hurdat_atl main 598 598 O_____________ hurdat_atl AL201978 26.2000 -70.9000 TS 45 1006 0 21 348
1978281N18304 1978 104 NA NA JULIET 1978-10-11 03:00:00 TS 27.2495 -71.0914 main 697 697 P_____________ AL201978 27.2495 -71.0914 TS 42 1006 0 21 358
1978281N18304 1978 104 NA NA JULIET 1978-10-11 06:00:00 TS 28.3000 -71.0000 40 1006 hurdat_atl main 781 781 O_____________ hurdat_atl AL201978 28.3000 -71.0000 TS 40 1006 0 21 13
1978281N18304 1978 104 NA NA JULIET 1978-10-11 09:00:00 TS 29.2761 -70.5559 main 818 796 P_____________ AL201978 29.2761 -70.5559 TS 37 1006 0 21 27
1978281N18304 1978 104 NA NA JULIET 1978-10-11 12:00:00 TS 30.2000 -69.9000 35 1006 hurdat_atl main 795 O_____________ hurdat_atl AL201978 30.2000 -69.9000 TS 35 1006 0 22 31

IBTrACS Databaseについて

本データベースは、米国NOAAが公開する1842年以降の世界の熱帯低気圧のベストトラックデータアーカイブInternational Best Track Archive for Climate Stewardship (IBTrACS)を、ウェブで閲覧しやすい形式に変換したものです。

最終更新日:2021-10-08